sensor_id;sensor_type;location;lat;lon;timestamp;pressure;altitude;pressure_sealevel;temperature;humidity
79309;BME280;68767;53.078;7.386;2023-09-07T00:01:00;102288.53;;;19.01;100.00
79309;BME280;68767;53.078;7.386;2023-09-07T00:03:31;102292.38;;;19.00;100.00
79309;BME280;68767;53.078;7.386;2023-09-07T00:05:58;102295.34;;;18.95;100.00
79309;BME280;68767;53.078;7.386;2023-09-07T00:08:25;102285.44;;;19.03;100.00
79309;BME280;68767;53.078;7.386;2023-09-07T00:10:52;102283.19;;;18.93;100.00
79309;BME280;68767;53.078;7.386;2023-09-07T00:13:19;102284.22;;;18.88;100.00
79309;BME280;68767;53.078;7.386;2023-09-07T00:15:46;102281.59;;;18.92;100.00
79309;BME280;68767;53.078;7.386;2023-09-07T00:18:13;102278.53;;;18.93;100.00
79309;BME280;68767;53.078;7.386;2023-09-07T00:20:44;102273.19;;;18.85;100.00
79309;BME280;68767;53.078;7.386;2023-09-07T00:23:11;102274.22;;;18.80;100.00
79309;BME280;68767;53.078;7.386;2023-09-07T00:25:38;102278.72;;;18.76;100.00
79309;BME280;68767;53.078;7.386;2023-09-07T00:28:05;102268.16;;;18.74;100.00
79309;BME280;68767;53.078;7.386;2023-09-07T00:30:32;102259.41;;;18.69;100.00
79309;BME280;68767;53.078;7.386;2023-09-07T00:32:59;102270.59;;;18.55;100.00
79309;BME280;68767;53.078;7.386;2023-09-07T00:35:26;102272.84;;;18.53;100.00
79309;BME280;68767;53.078;7.386;2023-09-07T00:37:53;102271.13;;;18.48;100.00
79309;BME280;68767;53.078;7.386;2023-09-07T00:40:22;102275.19;;;18.42;100.00
79309;BME280;68767;53.078;7.386;2023-09-07T00:42:49;102277.91;;;18.42;100.00
79309;BME280;68767;53.078;7.386;2023-09-07T00:45:16;102277.13;;;18.42;100.00
79309;BME280;68767;53.078;7.386;2023-09-07T00:47:44;102287.91;;;18.38;100.00
79309;BME280;68767;53.078;7.386;2023-09-07T00:50:12;102280.03;;;18.37;100.00
79309;BME280;68767;53.078;7.386;2023-09-07T00:52:43;102281.66;;;18.38;100.00
79309;BME280;68767;53.078;7.386;2023-09-07T00:55:12;102277.47;;;18.40;100.00
79309;BME280;68767;53.078;7.386;2023-09-07T00:57:40;102286.63;;;18.36;100.00
79309;BME280;68767;53.078;7.386;2023-09-07T01:00:09;102285.72;;;18.32;100.00
79309;BME280;68767;53.078;7.386;2023-09-07T01:02:37;102274.59;;;18.37;100.00
79309;BME280;68767;53.078;7.386;2023-09-07T01:05:04;102276.94;;;18.26;100.00
79309;BME280;68767;53.078;7.386;2023-09-07T01:07:43;102281.94;;;18.24;100.00
79309;BME280;68767;53.078;7.386;2023-09-07T01:10:11;102288.78;;;18.30;100.00
79309;BME280;68767;53.078;7.386;2023-09-07T01:12:39;102275.34;;;18.25;100.00
79309;BME280;68767;53.078;7.386;2023-09-07T01:15:07;102284.72;;;18.15;100.00
79309;BME280;68767;53.078;7.386;2023-09-07T01:17:34;102276.09;;;18.13;100.00
79309;BME280;68767;53.078;7.386;2023-09-07T01:20:07;102278.34;;;18.11;100.00
79309;BME280;68767;53.078;7.386;2023-09-07T01:22:38;102278.56;;;18.06;100.00
79309;BME280;68767;53.078;7.386;2023-09-07T01:25:06;102274.25;;;18.05;100.00
79309;BME280;68767;53.078;7.386;2023-09-07T01:27:34;102272.44;;;18.09;100.00
79309;BME280;68767;53.078;7.386;2023-09-07T01:30:02;102273.66;;;18.00;100.00
79309;BME280;68767;53.078;7.386;2023-09-07T01:32:32;102274.44;;;18.00;100.00
79309;BME280;68767;53.078;7.386;2023-09-07T01:34:59;102266.16;;;17.96;100.00
79309;BME280;68767;53.078;7.386;2023-09-07T01:37:28;102268.41;;;17.94;100.00
79309;BME280;68767;53.078;7.386;2023-09-07T01:39:55;102271.06;;;17.82;100.00
79309;BME280;68767;53.078;7.386;2023-09-07T01:42:22;102275.31;;;17.92;100.00
79309;BME280;68767;53.078;7.386;2023-09-07T01:44:49;102274.38;;;17.88;100.00
79309;BME280;68767;53.078;7.386;2023-09-07T01:47:16;102267.81;;;17.89;100.00
79309;BME280;68767;53.078;7.386;2023-09-07T01:49:43;102267.03;;;17.88;100.00
79309;BME280;68767;53.078;7.386;2023-09-07T01:52:10;102268.81;;;17.84;100.00
79309;BME280;68767;53.078;7.386;2023-09-07T01:54:37;102266.09;;;17.84;100.00
79309;BME280;68767;53.078;7.386;2023-09-07T01:57:04;102259.28;;;17.69;100.00
79309;BME280;68767;53.078;7.386;2023-09-07T01:59:31;102265.84;;;17.68;100.00
79309;BME280;68767;53.078;7.386;2023-09-07T02:01:58;102274.47;;;17.71;100.00
79309;BME280;68767;53.078;7.386;2023-09-07T02:04:25;102273.06;;;17.64;100.00
79309;BME280;68767;53.078;7.386;2023-09-07T02:06:52;102282.66;;;17.62;100.00
79309;BME280;68767;53.078;7.386;2023-09-07T02:09:19;102287.09;;;17.75;100.00
79309;BME280;68767;53.078;7.386;2023-09-07T02:11:46;102277.22;;;17.62;100.00
79309;BME280;68767;53.078;7.386;2023-09-07T02:14:13;102286.91;;;17.51;100.00
79309;BME280;68767;53.078;7.386;2023-09-07T02:16:40;102282.47;;;17.46;100.00
79309;BME280;68767;53.078;7.386;2023-09-07T02:19:09;102279.41;;;17.48;100.00
79309;BME280;68767;53.078;7.386;2023-09-07T02:21:36;102281.47;;;17.51;100.00
79309;BME280;68767;53.078;7.386;2023-09-07T02:24:04;102271.72;;;17.50;100.00
79309;BME280;68767;53.078;7.386;2023-09-07T02:26:31;102280.84;;;17.45;100.00
79309;BME280;68767;53.078;7.386;2023-09-07T02:28:58;102278.13;;;17.45;100.00
79309;BME280;68767;53.078;7.386;2023-09-07T02:31:25;102278.00;;;17.41;100.00
79309;BME280;68767;53.078;7.386;2023-09-07T02:33:53;102267.63;;;17.35;100.00
79309;BME280;68767;53.078;7.386;2023-09-07T02:36:20;102280.25;;;17.39;100.00
79309;BME280;68767;53.078;7.386;2023-09-07T02:38:47;102272.16;;;17.31;100.00
79309;BME280;68767;53.078;7.386;2023-09-07T02:41:14;102267.84;;;17.30;100.00
79309;BME280;68767;53.078;7.386;2023-09-07T02:43:41;102274.88;;;17.31;100.00
79309;BME280;68767;53.078;7.386;2023-09-07T02:46:08;102280.19;;;17.19;100.00
79309;BME280;68767;53.078;7.386;2023-09-07T02:48:35;102269.28;;;17.27;100.00
79309;BME280;68767;53.078;7.386;2023-09-07T02:51:02;102280.00;;;17.24;100.00
79309;BME280;68767;53.078;7.386;2023-09-07T02:53:29;102278.09;;;17.24;100.00
79309;BME280;68767;53.078;7.386;2023-09-07T02:55:56;102278.13;;;17.16;100.00
79309;BME280;68767;53.078;7.386;2023-09-07T02:58:25;102284.69;;;17.15;100.00
79309;BME280;68767;53.078;7.386;2023-09-07T03:00:52;102282.78;;;17.06;100.00
79309;BME280;68767;53.078;7.386;2023-09-07T03:03:22;102280.88;;;17.07;100.00
79309;BME280;68767;53.078;7.386;2023-09-07T03:05:50;102285.19;;;17.08;100.00
79309;BME280;68767;53.078;7.386;2023-09-07T03:08:17;102285.84;;;17.05;100.00
79309;BME280;68767;53.078;7.386;2023-09-07T03:10:44;102292.09;;;16.97;100.00
79309;BME280;68767;53.078;7.386;2023-09-07T03:13:11;102291.81;;;16.90;100.00
79309;BME280;68767;53.078;7.386;2023-09-07T03:15:39;102293.38;;;16.91;100.00
79309;BME280;68767;53.078;7.386;2023-09-07T03:18:10;102293.56;;;16.85;100.00
79309;BME280;68767;53.078;7.386;2023-09-07T03:20:38;102297.38;;;16.84;100.00
79309;BME280;68767;53.078;7.386;2023-09-07T03:23:06;102297.56;;;16.79;100.00
79309;BME280;68767;53.078;7.386;2023-09-07T03:25:34;102293.25;;;16.78;100.00
79309;BME280;68767;53.078;7.386;2023-09-07T03:28:01;102292.63;;;16.73;100.00
79309;BME280;68767;53.078;7.386;2023-09-07T03:30:29;102286.72;;;16.71;100.00
79309;BME280;68767;53.078;7.386;2023-09-07T03:32:57;102298.53;;;16.75;100.00
79309;BME280;68767;53.078;7.386;2023-09-07T03:35:24;102299.19;;;16.72;100.00
79309;BME280;68767;53.078;7.386;2023-09-07T03:37:51;102299.00;;;16.68;100.00
79309;BME280;68767;53.078;7.386;2023-09-07T03:40:18;102298.38;;;16.71;100.00
79309;BME280;68767;53.078;7.386;2023-09-07T03:42:44;102305.41;;;16.64;100.00
79309;BME280;68767;53.078;7.386;2023-09-07T03:45:13;102302.19;;;16.62;100.00
79309;BME280;68767;53.078;7.386;2023-09-07T03:47:40;102302.53;;;16.69;100.00
79309;BME280;68767;53.078;7.386;2023-09-07T03:50:10;102310.19;;;16.67;100.00
79309;BME280;68767;53.078;7.386;2023-09-07T03:52:37;102300.59;;;16.61;100.00
79309;BME280;68767;53.078;7.386;2023-09-07T03:55:06;102305.22;;;16.60;100.00
79309;BME280;68767;53.078;7.386;2023-09-07T03:57:34;102304.91;;;16.53;100.00
79309;BME280;68767;53.078;7.386;2023-09-07T04:00:01;102297.91;;;16.43;100.00
79309;BME280;68767;53.078;7.386;2023-09-07T04:02:42;102307.16;;;16.51;100.00
79309;BME280;68767;53.078;7.386;2023-09-07T04:05:10;102303.66;;;16.50;100.00
79309;BME280;68767;53.078;7.386;2023-09-07T04:07:40;102305.72;;;16.45;100.00
79309;BME280;68767;53.078;7.386;2023-09-07T04:10:08;102307.81;;;16.48;100.00
79309;BME280;68767;53.078;7.386;2023-09-07T04:12:36;102299.81;;;16.43;100.00
79309;BME280;68767;53.078;7.386;2023-09-07T04:15:03;102301.75;;;16.42;100.00
79309;BME280;68767;53.078;7.386;2023-09-07T04:17:30;102303.81;;;16.37;100.00
79309;BME280;68767;53.078;7.386;2023-09-07T04:20:07;102303.03;;;16.36;100.00
79309;BME280;68767;53.078;7.386;2023-09-07T04:22:35;102292.34;;;16.31;100.00
79309;BME280;68767;53.078;7.386;2023-09-07T04:25:02;102301.91;;;16.28;100.00
79309;BME280;68767;53.078;7.386;2023-09-07T04:27:30;102306.72;;;16.32;100.00
79309;BME280;68767;53.078;7.386;2023-09-07T04:29:58;102307.50;;;16.32;100.00
79309;BME280;68767;53.078;7.386;2023-09-07T04:32:26;102311.63;;;16.29;100.00
79309;BME280;68767;53.078;7.386;2023-09-07T04:34:56;102310.69;;;16.25;100.00
79309;BME280;68767;53.078;7.386;2023-09-07T04:37:23;102311.81;;;16.24;100.00
79309;BME280;68767;53.078;7.386;2023-09-07T04:39:51;102310.22;;;16.23;100.00
79309;BME280;68767;53.078;7.386;2023-09-07T04:42:22;102309.25;;;16.19;100.00
79309;BME280;68767;53.078;7.386;2023-09-07T04:44:49;102311.63;;;16.21;100.00
79309;BME280;68767;53.078;7.386;2023-09-07T04:47:16;102315.00;;;16.26;100.00
79309;BME280;68767;53.078;7.386;2023-09-07T04:49:48;102317.06;;;16.21;100.00
79309;BME280;68767;53.078;7.386;2023-09-07T04:52:18;102306.22;;;16.21;100.00
79309;BME280;68767;53.078;7.386;2023-09-07T04:54:46;102307.00;;;16.21;100.00
79309;BME280;68767;53.078;7.386;2023-09-07T04:57:17;102317.56;;;16.23;100.00
79309;BME280;68767;53.078;7.386;2023-09-07T04:59:47;102312.28;;;16.26;100.00
79309;BME280;68767;53.078;7.386;2023-09-07T05:02:14;102317.06;;;16.21;100.00
79309;BME280;68767;53.078;7.386;2023-09-07T05:04:42;102316.59;;;16.19;100.00
79309;BME280;68767;53.078;7.386;2023-09-07T05:07:09;102317.38;;;16.19;100.00
79309;BME280;68767;53.078;7.386;2023-09-07T05:09:36;102320.56;;;16.13;100.00
79309;BME280;68767;53.078;7.386;2023-09-07T05:12:03;102319.16;;;16.15;100.00
79309;BME280;68767;53.078;7.386;2023-09-07T05:14:30;102315.47;;;16.11;100.00
79309;BME280;68767;53.078;7.386;2023-09-07T05:16:57;102315.78;;;16.10;100.00
79309;BME280;68767;53.078;7.386;2023-09-07T05:19:25;102323.44;;;16.08;100.00
79309;BME280;68767;53.078;7.386;2023-09-07T05:21:52;102320.25;;;16.06;100.00
79309;BME280;68767;53.078;7.386;2023-09-07T05:24:19;102324.72;;;16.10;100.00
79309;BME280;68767;53.078;7.386;2023-09-07T05:26:46;102333.00;;;16.05;100.00
79309;BME280;68767;53.078;7.386;2023-09-07T05:29:13;102337.94;;;16.03;100.00
79309;BME280;68767;53.078;7.386;2023-09-07T05:31:40;102337.78;;;15.99;100.00
79309;BME280;68767;53.078;7.386;2023-09-07T05:34:07;102325.81;;;16.00;100.00
79309;BME280;68767;53.078;7.386;2023-09-07T05:36:34;102322.97;;;16.06;100.00
79309;BME280;68767;53.078;7.386;2023-09-07T05:39:01;102324.69;;;16.01;100.00
79309;BME280;68767;53.078;7.386;2023-09-07T05:41:31;102322.31;;;16.09;100.00
79309;BME280;68767;53.078;7.386;2023-09-07T05:43:58;102325.38;;;16.16;100.00
79309;BME280;68767;53.078;7.386;2023-09-07T05:46:25;102326.78;;;16.13;100.00
79309;BME280;68767;53.078;7.386;2023-09-07T05:48:52;102337.34;;;16.15;100.00
79309;BME280;68767;53.078;7.386;2023-09-07T05:51:19;102329.50;;;16.13;100.00
79309;BME280;68767;53.078;7.386;2023-09-07T05:53:46;102337.16;;;16.20;100.00
79309;BME280;68767;53.078;7.386;2023-09-07T05:56:13;102327.28;;;16.24;100.00
79309;BME280;68767;53.078;7.386;2023-09-07T05:58:40;102335.75;;;16.22;100.00
79309;BME280;68767;53.078;7.386;2023-09-07T06:01:08;102334.13;;;16.30;100.00
79309;BME280;68767;53.078;7.386;2023-09-07T06:03:35;102335.09;;;16.43;100.00
79309;BME280;68767;53.078;7.386;2023-09-07T06:06:02;102333.50;;;16.42;100.00
79309;BME280;68767;53.078;7.386;2023-09-07T06:08:30;102340.03;;;16.49;100.00
79309;BME280;68767;53.078;7.386;2023-09-07T06:10:57;102335.41;;;16.50;100.00
79309;BME280;68767;53.078;7.386;2023-09-07T06:13:24;102339.56;;;16.56;100.00
79309;BME280;68767;53.078;7.386;2023-09-07T06:15:51;102338.59;;;16.61;100.00
79309;BME280;68767;53.078;7.386;2023-09-07T06:18:18;102336.84;;;16.65;100.00
79309;BME280;68767;53.078;7.386;2023-09-07T06:20:45;102340.50;;;16.77;100.00
79309;BME280;68767;53.078;7.386;2023-09-07T06:23:13;102332.69;;;16.84;100.00
79309;BME280;68767;53.078;7.386;2023-09-07T06:25:40;102332.00;;;16.96;100.00
79309;BME280;68767;53.078;7.386;2023-09-07T06:28:07;102328.19;;;16.97;100.00
79309;BME280;68767;53.078;7.386;2023-09-07T06:30:34;102339.69;;;16.94;100.00
79309;BME280;68767;53.078;7.386;2023-09-07T06:33:02;102353.25;;;16.94;100.00
79309;BME280;68767;53.078;7.386;2023-09-07T06:35:29;102355.63;;;16.96;100.00
79309;BME280;68767;53.078;7.386;2023-09-07T06:37:56;102350.22;;;16.96;100.00
79309;BME280;68767;53.078;7.386;2023-09-07T06:40:24;102351.00;;;17.13;100.00
79309;BME280;68767;53.078;7.386;2023-09-07T06:42:55;102350.78;;;17.19;100.00
79309;BME280;68767;53.078;7.386;2023-09-07T06:45:25;102348.53;;;17.21;100.00
79309;BME280;68767;53.078;7.386;2023-09-07T06:47:52;102359.09;;;17.31;100.00
79309;BME280;68767;53.078;7.386;2023-09-07T06:50:22;102349.81;;;17.32;100.00
79309;BME280;68767;53.078;7.386;2023-09-07T06:52:50;102356.16;;;17.36;100.00
79309;BME280;68767;53.078;7.386;2023-09-07T06:55:18;102349.16;;;17.35;100.00
79309;BME280;68767;53.078;7.386;2023-09-07T06:57:46;102356.63;;;17.47;100.00
79309;BME280;68767;53.078;7.386;2023-09-07T07:00:13;102356.59;;;17.55;100.00
79309;BME280;68767;53.078;7.386;2023-09-07T07:02:41;102360.91;;;17.56;100.00
79309;BME280;68767;53.078;7.386;2023-09-07T07:05:09;102363.56;;;17.65;100.00
79309;BME280;68767;53.078;7.386;2023-09-07T07:07:36;102351.63;;;17.87;100.00
79309;BME280;68767;53.078;7.386;2023-09-07T07:10:04;102357.88;;;17.87;100.00
79309;BME280;68767;53.078;7.386;2023-09-07T07:12:31;102361.34;;;17.96;100.00
79309;BME280;68767;53.078;7.386;2023-09-07T07:15:02;102356.31;;;18.07;100.00
79309;BME280;68767;53.078;7.386;2023-09-07T07:17:29;102364.69;;;18.23;100.00
79309;BME280;68767;53.078;7.386;2023-09-07T07:19:56;102362.09;;;18.27;100.00
79309;BME280;68767;53.078;7.386;2023-09-07T07:22:24;102362.97;;;18.39;100.00
79309;BME280;68767;53.078;7.386;2023-09-07T07:24:51;102361.56;;;18.54;100.00
79309;BME280;68767;53.078;7.386;2023-09-07T07:27:20;102357.91;;;18.71;100.00
79309;BME280;68767;53.078;7.386;2023-09-07T07:29:47;102355.22;;;18.83;100.00
79309;BME280;68767;53.078;7.386;2023-09-07T07:32:15;102361.97;;;19.10;100.00
79309;BME280;68767;53.078;7.386;2023-09-07T07:34:42;102358.94;;;19.24;100.00
79309;BME280;68767;53.078;7.386;2023-09-07T07:37:10;102353.03;;;19.34;100.00
79309;BME280;68767;53.078;7.386;2023-09-07T07:39:37;102357.13;;;19.52;100.00
79309;BME280;68767;53.078;7.386;2023-09-07T07:42:05;102355.47;;;19.72;100.00
79309;BME280;68767;53.078;7.386;2023-09-07T07:44:33;102359.31;;;19.83;100.00
79309;BME280;68767;53.078;7.386;2023-09-07T07:47:00;102359.06;;;20.01;100.00
79309;BME280;68767;53.078;7.386;2023-09-07T07:49:27;102363.59;;;20.09;100.00
79309;BME280;68767;53.078;7.386;2023-09-07T07:51:55;102358.56;;;20.23;100.00
79309;BME280;68767;53.078;7.386;2023-09-07T07:54:24;102361.81;;;20.41;100.00
79309;BME280;68767;53.078;7.386;2023-09-07T07:56:53;102363.41;;;20.42;100.00
79309;BME280;68767;53.078;7.386;2023-09-07T07:59:21;102355.72;;;20.60;100.00
79309;BME280;68767;53.078;7.386;2023-09-07T08:01:48;102356.13;;;20.74;100.00
79309;BME280;68767;53.078;7.386;2023-09-07T08:04:15;102355.38;;;20.89;100.00
79309;BME280;68767;53.078;7.386;2023-09-07T08:06:42;102363.13;;;20.87;100.00
79309;BME280;68767;53.078;7.386;2023-09-07T08:09:10;102348.41;;;21.08;100.00
79309;BME280;68767;53.078;7.386;2023-09-07T08:11:39;102356.44;;;21.16;100.00
79309;BME280;68767;53.078;7.386;2023-09-07T08:14:07;102348.63;;;21.46;100.00
79309;BME280;68767;53.078;7.386;2023-09-07T08:16:34;102346.25;;;21.61;100.00
79309;BME280;68767;53.078;7.386;2023-09-07T08:19:01;102350.78;;;21.72;100.00
79309;BME280;68767;53.078;7.386;2023-09-07T08:21:28;102342.00;;;21.98;100.00
79309;BME280;68767;53.078;7.386;2023-09-07T08:23:55;102345.78;;;22.09;100.00
79309;BME280;68767;53.078;7.386;2023-09-07T08:26:23;102341.16;;;22.13;100.00
79309;BME280;68767;53.078;7.386;2023-09-07T08:28:50;102331.91;;;22.18;100.00
79309;BME280;68767;53.078;7.386;2023-09-07T08:31:17;102333.97;;;22.25;100.00
79309;BME280;68767;53.078;7.386;2023-09-07T08:33:49;102331.78;;;22.34;100.00
79309;BME280;68767;53.078;7.386;2023-09-07T08:36:18;102333.94;;;22.63;100.00
79309;BME280;68767;53.078;7.386;2023-09-07T08:38:45;102324.94;;;22.63;100.00
79309;BME280;68767;53.078;7.386;2023-09-07T08:41:13;102327.56;;;22.79;100.00
79309;BME280;68767;53.078;7.386;2023-09-07T08:43:45;102326.38;;;22.99;100.00
79309;BME280;68767;53.078;7.386;2023-09-07T08:46:18;102332.00;;;23.06;100.00
79309;BME280;68767;53.078;7.386;2023-09-07T08:48:50;102320.97;;;23.25;100.00
79309;BME280;68767;53.078;7.386;2023-09-07T08:51:19;102329.13;;;23.22;100.00
79309;BME280;68767;53.078;7.386;2023-09-07T08:53:46;102327.81;;;23.39;100.00
79309;BME280;68767;53.078;7.386;2023-09-07T08:56:16;102331.06;;;23.71;100.00
79309;BME280;68767;53.078;7.386;2023-09-07T08:58:43;102333.41;;;23.99;100.00
79309;BME280;68767;53.078;7.386;2023-09-07T09:01:17;102327.13;;;23.98;100.00
79309;BME280;68767;53.078;7.386;2023-09-07T09:03:45;102325.31;;;24.09;100.00
79309;BME280;68767;53.078;7.386;2023-09-07T09:06:14;102328.59;;;24.22;100.00
79309;BME280;68767;53.078;7.386;2023-09-07T09:08:46;102321.53;;;24.21;100.00
79309;BME280;68767;53.078;7.386;2023-09-07T09:11:17;102330.34;;;24.34;100.00
79309;BME280;68767;53.078;7.386;2023-09-07T09:13:44;102319.47;;;24.45;100.00
79309;BME280;68767;53.078;7.386;2023-09-07T09:16:12;102329.94;;;24.69;100.00
79309;BME280;68767;53.078;7.386;2023-09-07T09:18:51;102315.00;;;24.67;100.00
79309;BME280;68767;53.078;7.386;2023-09-07T09:21:20;102313.91;;;24.75;100.00
79309;BME280;68767;53.078;7.386;2023-09-07T09:23:49;102310.53;;;24.96;100.00
79309;BME280;68767;53.078;7.386;2023-09-07T09:26:16;102312.34;;;25.21;100.00
79309;BME280;68767;53.078;7.386;2023-09-07T09:28:44;102312.84;;;25.34;100.00
79309;BME280;68767;53.078;7.386;2023-09-07T09:31:14;102315.66;;;25.45;100.00
79309;BME280;68767;53.078;7.386;2023-09-07T09:33:42;102319.59;;;25.47;100.00
79309;BME280;68767;53.078;7.386;2023-09-07T09:36:14;102309.53;;;25.69;100.00
79309;BME280;68767;53.078;7.386;2023-09-07T09:38:47;102298.63;;;25.84;100.00
79309;BME280;68767;53.078;7.386;2023-09-07T09:41:17;102303.69;;;25.82;100.00
79309;BME280;68767;53.078;7.386;2023-09-07T09:43:46;102295.47;;;25.85;100.00
79309;BME280;68767;53.078;7.386;2023-09-07T09:46:17;102294.69;;;25.88;100.00
79309;BME280;68767;53.078;7.386;2023-09-07T09:48:44;102299.06;;;25.96;100.00
79309;BME280;68767;53.078;7.386;2023-09-07T09:51:12;102296.78;;;26.16;100.00
79309;BME280;68767;53.078;7.386;2023-09-07T09:53:42;102295.94;;;26.01;100.00
79309;BME280;68767;53.078;7.386;2023-09-07T09:56:09;102290.78;;;25.96;100.00
79309;BME280;68767;53.078;7.386;2023-09-07T09:58:36;102292.38;;;25.97;100.00
79309;BME280;68767;53.078;7.386;2023-09-07T10:01:07;102280.63;;;26.11;100.00
79309;BME280;68767;53.078;7.386;2023-09-07T10:03:38;102287.44;;;26.49;100.00
79309;BME280;68767;53.078;7.386;2023-09-07T10:06:23;102279.19;;;26.49;100.00
79309;BME280;68767;53.078;7.386;2023-09-07T10:09:04;102277.19;;;26.43;100.00
79309;BME280;68767;53.078;7.386;2023-09-07T10:11:38;102289.41;;;26.45;100.00
79309;BME280;68767;53.078;7.386;2023-09-07T10:14:07;102268.16;;;26.53;100.00
79309;BME280;68767;53.078;7.386;2023-09-07T10:16:45;102266.16;;;26.39;100.00
79309;BME280;68767;53.078;7.386;2023-09-07T10:19:23;102263.03;;;26.80;100.00
79309;BME280;68767;53.078;7.386;2023-09-07T10:21:53;102263.03;;;26.87;100.00
79309;BME280;68767;53.078;7.386;2023-09-07T10:24:34;102255.91;;;27.29;100.00
79309;BME280;68767;53.078;7.386;2023-09-07T10:27:08;102251.19;;;27.22;100.00
79309;BME280;68767;53.078;7.386;2023-09-07T10:29:42;102256.28;;;27.38;100.00
79309;BME280;68767;53.078;7.386;2023-09-07T10:32:10;102255.91;;;27.39;100.00
79309;BME280;68767;53.078;7.386;2023-09-07T10:34:46;102241.66;;;27.52;100.00
79309;BME280;68767;53.078;7.386;2023-09-07T10:37:14;102244.78;;;27.61;100.00
79309;BME280;68767;53.078;7.386;2023-09-07T10:39:42;102245.56;;;27.65;100.00
79309;BME280;68767;53.078;7.386;2023-09-07T10:42:25;102243.16;;;27.78;100.00
79309;BME280;68767;53.078;7.386;2023-09-07T10:44:54;102243.97;;;27.82;100.00
79309;BME280;68767;53.078;7.386;2023-09-07T10:47:21;102245.97;;;27.70;100.00
79309;BME280;68767;53.078;7.386;2023-09-07T10:49:48;102240.06;;;27.68;100.00
79309;BME280;68767;53.078;7.386;2023-09-07T10:52:16;102233.97;;;28.02;100.00
79309;BME280;68767;53.078;7.386;2023-09-07T10:54:43;102248.09;;;28.18;100.00
79309;BME280;68767;53.078;7.386;2023-09-07T10:57:11;102234.03;;;27.91;100.00
79309;BME280;68767;53.078;7.386;2023-09-07T10:59:45;102228.22;;;27.64;100.00
79309;BME280;68767;53.078;7.386;2023-09-07T11:02:13;102235.69;;;27.75;100.00
79309;BME280;68767;53.078;7.386;2023-09-07T11:04:42;102232.81;;;27.96;100.00
79309;BME280;68767;53.078;7.386;2023-09-07T11:07:11;102233.97;;;28.06;100.00
79309;BME280;68767;53.078;7.386;2023-09-07T11:09:42;102239.47;;;28.09;100.00
79309;BME280;68767;53.078;7.386;2023-09-07T11:12:13;102228.31;;;28.31;100.00
79309;BME280;68767;53.078;7.386;2023-09-07T11:14:42;102231.34;;;28.47;100.00
79309;BME280;68767;53.078;7.386;2023-09-07T11:17:09;102232.72;;;28.69;100.00
79309;BME280;68767;53.078;7.386;2023-09-07T11:19:36;102226.91;;;29.05;100.00
79309;BME280;68767;53.078;7.386;2023-09-07T11:22:04;102234.81;;;29.03;100.00
79309;BME280;68767;53.078;7.386;2023-09-07T11:24:34;102223.94;;;28.81;95.66
79309;BME280;68767;53.078;7.386;2023-09-07T11:27:01;102224.84;;;28.68;98.22
79309;BME280;68767;53.078;7.386;2023-09-07T11:29:32;102218.66;;;28.53;100.00
79309;BME280;68767;53.078;7.386;2023-09-07T11:32:09;102214.09;;;28.77;95.60
79309;BME280;68767;53.078;7.386;2023-09-07T11:34:50;102202.28;;;28.73;98.06
79309;BME280;68767;53.078;7.386;2023-09-07T11:37:23;102205.66;;;28.95;99.85
79309;BME280;68767;53.078;7.386;2023-09-07T11:39:50;102206.16;;;29.20;97.98
79309;BME280;68767;53.078;7.386;2023-09-07T11:42:18;102200.19;;;29.25;97.99
79309;BME280;68767;53.078;7.386;2023-09-07T11:44:45;102190.88;;;29.08;100.00
79309;BME280;68767;53.078;7.386;2023-09-07T11:47:12;102195.44;;;28.88;100.00
79309;BME280;68767;53.078;7.386;2023-09-07T11:49:38;102191.31;;;29.07;100.00
79309;BME280;68767;53.078;7.386;2023-09-07T11:52:05;102192.88;;;29.42;96.11
79309;BME280;68767;53.078;7.386;2023-09-07T11:54:34;102189.75;;;29.36;92.99
79309;BME280;68767;53.078;7.386;2023-09-07T11:57:01;102180.75;;;29.29;97.77
79309;BME280;68767;53.078;7.386;2023-09-07T11:59:27;102183.06;;;29.34;96.58
79309;BME280;68767;53.078;7.386;2023-09-07T12:02:09;102168.72;;;29.43;97.83
79309;BME280;68767;53.078;7.386;2023-09-07T12:04:41;102169.47;;;29.47;89.39
79309;BME280;68767;53.078;7.386;2023-09-07T12:07:09;102170.50;;;29.60;94.46
79309;BME280;68767;53.078;7.386;2023-09-07T12:09:36;102167.81;;;29.56;94.40
79309;BME280;68767;53.078;7.386;2023-09-07T12:12:03;102169.81;;;29.52;98.11
79309;BME280;68767;53.078;7.386;2023-09-07T12:14:30;102160.31;;;29.53;97.87
79309;BME280;68767;53.078;7.386;2023-09-07T12:16:58;102161.75;;;29.65;97.10
79309;BME280;68767;53.078;7.386;2023-09-07T12:19:25;102154.91;;;29.73;96.22
79309;BME280;68767;53.078;7.386;2023-09-07T12:21:52;102155.69;;;29.74;93.23
79309;BME280;68767;53.078;7.386;2023-09-07T12:24:19;102147.28;;;29.81;94.41
79309;BME280;68767;53.078;7.386;2023-09-07T12:26:46;102150.41;;;30.10;99.56
79309;BME280;68767;53.078;7.386;2023-09-07T12:29:13;102141.50;;;30.22;94.42
79309;BME280;68767;53.078;7.386;2023-09-07T12:31:40;102150.25;;;30.20;96.30
79309;BME280;68767;53.078;7.386;2023-09-07T12:34:07;102147.88;;;30.19;90.32
79309;BME280;68767;53.078;7.386;2023-09-07T12:36:35;102147.53;;;30.17;90.94
79309;BME280;68767;53.078;7.386;2023-09-07T12:39:02;102152.53;;;29.99;90.95
79309;BME280;68767;53.078;7.386;2023-09-07T12:41:31;102134.03;;;29.92;89.45
79309;BME280;68767;53.078;7.386;2023-09-07T12:43:58;102129.88;;;30.04;99.66
79309;BME280;68767;53.078;7.386;2023-09-07T12:46:25;102131.56;;;30.25;92.20